Time;durP1;ratioP1;P1;durP2;ratioP2;P2;SDS_P1;SDS_P2;PMS_P1;PMS_P2;Temp;Humidity;BMP_temperature;BMP_pressure;BME280_temperature;BME280_humidity;BME280_pressure;Samples;Min_cycle;Max_cycle;Signal;HPM_P1;HPM_P2
2021/05/21 00:01:00;;;;;;;8.68;3.72;;;;;;;10.14;44.38;100675.34;5003314;28;20029;-67
2021/05/21 00:03:26;;;;;;;3.58;2.63;;;;;;;10.12;44.56;100671.94;5003038;28;20133;-66
2021/05/21 00:05:51;;;;;;;5.10;3.10;;;;;;;10.03;44.03;100673.16;5003962;28;20022;-67
2021/05/21 00:08:16;;;;;;;4.35;2.55;;;;;;;10.12;43.90;100670.16;5003995;28;20520;-67
2021/05/21 00:10:43;;;;;;;3.70;2.80;;;;;;;9.90;43.93;100667.63;5001930;28;20069;-65
2021/05/21 00:13:08;;;;;;;5.35;2.70;;;;;;;9.97;44.10;100660.38;5004043;28;20030;-69
2021/05/21 00:15:33;;;;;;;5.22;2.15;;;;;;;9.84;43.75;100648.75;5002860;28;20524;-70
2021/05/21 00:17:59;;;;;;;6.38;2.35;;;;;;;9.89;43.69;100646.78;5004020;28;20089;-70
2021/05/21 00:20:24;;;;;;;3.80;1.58;;;;;;;9.78;43.78;100640.19;5004369;28;20041;-70
2021/05/21 00:22:50;;;;;;;2.55;1.98;;;;;;;9.76;43.80;100628.97;5003723;28;20084;-70
2021/05/21 00:25:15;;;;;;;3.95;1.88;;;;;;;9.78;43.99;100632.38;5004687;28;20042;-70
2021/05/21 00:27:41;;;;;;;3.03;1.45;;;;;;;9.60;43.94;100622.66;5002573;28;20042;-67
2021/05/21 00:30:07;;;;;;;2.88;2.00;;;;;;;9.82;44.06;100619.25;5003928;28;20297;-66
2021/05/21 00:32:32;;;;;;;2.65;1.30;;;;;;;9.80;43.99;100609.69;5002071;28;20045;-70
2021/05/21 00:34:58;;;;;;;3.35;1.40;;;;;;;9.77;44.20;100598.50;5003774;28;20072;-69
2021/05/21 00:37:23;;;;;;;3.45;1.83;;;;;;;9.73;44.17;100603.00;5003591;28;20339;-69
2021/05/21 00:39:49;;;;;;;2.45;1.40;;;;;;;9.86;43.86;100597.31;5004314;28;20348;-69
2021/05/21 00:42:14;;;;;;;2.45;1.70;;;;;;;9.91;43.23;100584.91;5003630;28;20494;-69
2021/05/21 00:44:40;;;;;;;3.50;2.58;;;;;;;9.85;43.65;100579.94;5017946;28;20129;-68
2021/05/21 00:47:05;;;;;;;2.10;1.05;;;;;;;9.96;43.25;100569.91;5002903;28;20030;-69
2021/05/21 00:49:31;;;;;;;4.80;1.42;;;;;;;10.06;43.24;100560.78;5002769;28;20037;-68
2021/05/21 00:51:57;;;;;;;3.03;1.27;;;;;;;10.07;42.87;100554.63;5003396;28;20484;-67
2021/05/21 00:54:22;;;;;;;1.85;1.17;;;;;;;10.01;43.10;100549.66;5002761;28;20077;-69
2021/05/21 00:56:48;;;;;;;3.35;0.75;;;;;;;9.98;43.47;100550.63;5002717;28;20038;-69
2021/05/21 00:59:14;;;;;;;1.70;1.13;;;;;;;10.02;43.10;100536.53;5009871;28;20056;-69
2021/05/21 01:01:40;;;;;;;3.00;1.15;;;;;;;10.03;43.12;100537.38;5006173;28;20088;-69
2021/05/21 01:04:06;;;;;;;1.95;1.15;;;;;;;10.13;42.54;100523.03;5009431;28;20049;-69
2021/05/21 01:06:32;;;;;;;4.15;1.35;;;;;;;10.05;42.47;100512.06;5007834;28;20445;-67
2021/05/21 01:08:58;;;;;;;1.65;1.00;;;;;;;10.02;42.63;100509.59;5007920;28;20034;-69
2021/05/21 01:11:24;;;;;;;2.63;1.10;;;;;;;10.01;42.45;100500.03;5006495;28;20179;-67
2021/05/21 01:13:50;;;;;;;1.33;0.93;;;;;;;9.92;43.05;100492.63;5006037;28;20117;-67
2021/05/21 01:16:15;;;;;;;6.15;1.30;;;;;;;10.14;42.66;100493.38;5006209;28;20058;-67
2021/05/21 01:18:41;;;;;;;3.17;1.30;;;;;;;10.11;42.67;100485.69;5006046;28;20030;-67
2021/05/21 01:21:07;;;;;;;1.80;0.90;;;;;;;9.86;43.39;100482.47;5005988;28;20030;-67
2021/05/21 01:23:33;;;;;;;1.50;0.68;;;;;;;10.16;42.42;100480.25;5006561;28;20036;-67
2021/05/21 01:25:58;;;;;;;3.33;1.33;;;;;;;9.98;42.91;100474.94;5006235;28;20125;-66
2021/05/21 01:28:24;;;;;;;3.10;1.05;;;;;;;10.15;42.46;100463.75;5021770;28;20041;-66
2021/05/21 01:30:51;;;;;;;1.75;1.00;;;;;;;10.09;42.90;100463.19;5005911;28;20052;-67
2021/05/21 01:33:17;;;;;;;2.42;1.10;;;;;;;10.12;42.90;100453.41;5005900;28;20095;-67
2021/05/21 01:35:43;;;;;;;3.05;0.90;;;;;;;10.13;42.79;100443.84;5020270;28;20034;-66
2021/05/21 01:38:12;;;;;;;6.85;1.25;;;;;;;10.03;43.12;100438.16;5004871;28;20176;-67
2021/05/21 01:40:37;;;;;;;3.05;1.40;;;;;;;10.09;43.03;100435.28;5006230;28;20442;-67
2021/05/21 01:43:04;;;;;;;6.32;1.40;;;;;;;10.18;43.17;100432.25;5004151;28;20033;-68
2021/05/21 01:45:30;;;;;;;1.52;0.80;;;;;;;9.87;43.87;100421.50;5006465;28;20573;-68
2021/05/21 01:47:57;;;;;;;4.30;1.23;;;;;;;10.07;43.35;100429.28;5005919;28;20044;-68
2021/05/21 01:50:25;;;;;;;1.45;1.00;;;;;;;10.11;43.31;100428.25;5007199;28;20038;-68
2021/05/21 01:52:51;;;;;;;1.42;0.90;;;;;;;10.01;43.42;100421.72;5005851;28;20508;-68
2021/05/21 01:55:16;;;;;;;3.35;0.88;;;;;;;10.13;43.62;100417.72;5005233;28;20033;-68
2021/05/21 01:57:43;;;;;;;2.70;0.65;;;;;;;10.06;43.49;100404.09;5006153;28;20305;-68
2021/05/21 02:00:11;;;;;;;3.85;1.48;;;;;;;9.41;44.16;100398.22;5005226;28;20038;-68
2021/05/21 02:02:41;;;;;;;2.50;0.68;;;;;;;10.12;43.25;100406.41;4983507;28;20061;-68
2021/05/21 02:05:08;;;;;;;1.25;0.77;;;;;;;10.07;43.88;100407.56;5006969;28;20144;-69
2021/05/21 02:07:34;;;;;;;5.78;0.73;;;;;;;10.04;43.65;100408.53;5005764;28;20028;-70
2021/05/21 02:10:05;;;;;;;1.65;0.88;;;;;;;10.01;43.73;100398.22;5005939;28;20037;-70
2021/05/21 02:12:32;;;;;;;1.83;0.63;;;;;;;9.77;43.96;100395.78;5005913;28;20337;-70
2021/05/21 02:15:05;;;;;;;2.22;1.17;;;;;;;9.79;43.79;100372.22;5021766;28;20030;-69
2021/05/21 02:17:30;;;;;;;2.60;0.80;;;;;;;9.95;43.39;100382.84;5003562;28;20042;-70
2021/05/21 02:19:59;;;;;;;6.47;0.98;;;;;;;10.26;42.90;100387.53;5007234;28;20088;-70
2021/05/21 02:22:26;;;;;;;2.33;0.82;;;;;;;10.27;42.47;100380.53;5004596;28;20290;-69
2021/05/21 02:24:54;;;;;;;1.95;1.10;;;;;;;10.00;43.28;100378.25;5020795;28;20108;-70
2021/05/21 02:27:19;;;;;;;1.80;0.98;;;;;;;10.25;42.97;100375.38;5006156;28;20117;-69
2021/05/21 02:29:45;;;;;;;2.58;2.03;;;;;;;10.10;43.23;100365.63;5005956;28;20306;-70
2021/05/21 02:32:11;;;;;;;1.80;0.70;;;;;;;10.24;43.05;100362.41;5008061;28;20037;-67
2021/05/21 02:34:36;;;;;;;3.20;0.85;;;;;;;10.50;42.48;100358.53;5004438;28;20033;-66
2021/05/21 02:37:02;;;;;;;5.57;0.63;;;;;;;10.48;42.48;100356.00;4993288;28;20287;-66
2021/05/21 02:39:27;;;;;;;2.75;0.63;;;;;;;10.51;42.59;100352.41;5005219;28;20127;-66
2021/05/21 02:41:53;;;;;;;0.93;0.52;;;;;;;10.43;42.66;100350.16;5005817;28;20038;-66
2021/05/21 02:44:18;;;;;;;2.08;1.00;;;;;;;10.48;42.39;100345.56;5004755;28;20041;-67
2021/05/21 02:46:44;;;;;;;1.10;0.35;;;;;;;10.54;42.39;100350.47;5005487;28;20038;-66
2021/05/21 02:49:09;;;;;;;4.80;0.93;;;;;;;10.19;43.41;100347.78;5005093;28;20038;-66
2021/05/21 02:51:35;;;;;;;3.92;0.85;;;;;;;10.32;43.14;100339.34;5004550;28;20379;-67
2021/05/21 02:54:00;;;;;;;3.47;0.60;;;;;;;9.43;44.63;100325.94;5004183;28;20099;-66
2021/05/21 02:56:26;;;;;;;1.35;0.60;;;;;;;10.38;42.79;100333.84;4997616;28;20131;-65
2021/05/21 02:58:51;;;;;;;3.70;0.65;;;;;;;10.45;42.68;100326.56;5004339;28;20081;-68
2021/05/21 03:01:17;;;;;;;2.92;0.70;;;;;;;10.58;42.56;100319.81;5004129;28;20592;-67
2021/05/21 03:03:42;;;;;;;3.72;0.52;;;;;;;10.56;42.63;100321.66;5003098;28;20029;-66
2021/05/21 03:06:08;;;;;;;2.42;1.00;;;;;;;10.56;42.23;100322.50;5003911;28;20029;-67
2021/05/21 03:08:33;;;;;;;1.52;0.57;;;;;;;10.22;42.83;100324.13;5005382;28;20049;-67
2021/05/21 03:10:59;;;;;;;1.10;0.47;;;;;;;10.68;42.03;100313.22;5004458;28;20496;-66
2021/05/21 03:13:25;;;;;;;1.27;0.40;;;;;;;10.49;42.47;100315.88;5003832;28;20048;-67
2021/05/21 03:15:51;;;;;;;0.95;0.40;;;;;;;10.76;42.32;100310.22;5004426;28;20446;-67
2021/05/21 03:18:18;;;;;;;1.83;0.43;;;;;;;10.71;42.16;100309.63;5003611;28;20034;-67
2021/05/21 03:20:44;;;;;;;1.30;0.82;;;;;;;10.80;42.30;100320.47;5003423;28;20030;-66
2021/05/21 03:23:10;;;;;;;1.25;0.43;;;;;;;10.89;42.34;100311.34;5005546;28;20042;-69
2021/05/21 03:25:43;;;;;;;1.52;0.57;;;;;;;10.78;42.25;100317.06;5004909;28;20072;-66
2021/05/21 03:28:10;;;;;;;3.05;0.50;;;;;;;10.81;42.41;100316.94;5005155;28;20064;-69
2021/05/21 03:30:36;;;;;;;2.50;0.40;;;;;;;10.36;43.19;100335.69;5004500;28;20061;-70
2021/05/21 03:33:01;;;;;;;1.52;0.52;;;;;;;9.80;44.73;100327.81;5002926;28;20500;-69
2021/05/21 03:35:27;;;;;;;1.48;0.45;;;;;;;9.89;44.78;100336.13;5005027;28;20038;-69
2021/05/21 03:37:53;;;;;;;0.80;0.50;;;;;;;10.28;44.14;100340.41;5003985;28;20044;-66
2021/05/21 03:40:19;;;;;;;3.55;0.65;;;;;;;9.69;45.08;100339.63;5004571;28;20449;-67
2021/05/21 03:42:44;;;;;;;1.48;0.50;;;;;;;9.49;46.12;100356.16;5002536;28;20030;-68
2021/05/21 03:45:13;;;;;;;1.63;0.52;;;;;;;9.78;45.99;100391.41;5004447;28;20034;-67
2021/05/21 03:47:38;;;;;;;3.65;0.50;;;;;;;9.57;46.62;100372.31;5001882;28;20057;-67
2021/05/21 03:50:05;;;;;;;1.92;0.40;;;;;;;9.77;47.18;100358.41;5004530;28;20584;-67
2021/05/21 03:52:30;;;;;;;3.50;0.30;;;;;;;8.95;50.16;100337.59;5002590;28;20346;-67
2021/05/21 03:54:56;;;;;;;5.75;0.70;;;;;;;9.33;49.79;100328.13;5003010;28;20438;-67
2021/05/21 03:57:22;;;;;;;3.65;0.20;;;;;;;9.22;50.65;100322.53;5003992;28;20034;-67
2021/05/21 03:59:48;;;;;;;6.10;0.63;;;;;;;8.53;52.47;100335.78;5002708;28;20104;-68
2021/05/21 04:02:14;;;;;;;0.98;0.50;;;;;;;9.15;51.07;100339.34;5004195;28;20030;-68
2021/05/21 04:04:40;;;;;;;6.30;0.32;;;;;;;8.85;51.68;100329.31;5003227;28;20038;-67
2021/05/21 04:07:06;;;;;;;4.57;0.35;;;;;;;8.91;51.54;100326.44;5004539;28;20522;-67
2021/05/21 04:09:32;;;;;;;3.67;0.35;;;;;;;9.05;50.86;100330.22;5003352;28;20064;-67
2021/05/21 04:11:58;;;;;;;10.10;1.38;;;;;;;8.98;50.70;100333.09;5003857;28;20383;-67
2021/05/21 04:14:24;;;;;;;5.35;0.77;;;;;;;8.74;51.36;100324.53;5003639;28;20064;-67
2021/05/21 04:16:49;;;;;;;5.97;1.00;;;;;;;8.82;51.17;100321.59;5004411;28;20030;-67
2021/05/21 04:19:15;;;;;;;11.30;0.82;;;;;;;9.11;50.37;100322.97;5003071;28;20115;-67
2021/05/21 04:21:40;;;;;;;5.10;0.57;;;;;;;8.79;50.51;100318.28;5003868;28;20042;-69
2021/05/21 04:24:07;;;;;;;4.63;0.88;;;;;;;9.09;49.67;100324.81;5003470;28;20053;-66
2021/05/21 04:26:32;;;;;;;7.07;0.30;;;;;;;8.73;50.25;100308.97;5004130;28;20065;-67
2021/05/21 04:28:58;;;;;;;4.00;0.40;;;;;;;9.04;49.42;100302.47;5003184;28;20611;-67
2021/05/21 04:31:24;;;;;;;5.35;0.40;;;;;;;8.93;49.82;100295.94;5019357;28;20466;-70
2021/05/21 04:33:50;;;;;;;6.65;0.55;;;;;;;9.21;49.93;100286.94;5003304;28;20099;-70
2021/05/21 04:36:16;;;;;;;4.75;0.95;;;;;;;9.16;50.18;100291.50;4985554;28;20036;-69
2021/05/21 04:38:42;;;;;;;6.13;0.50;;;;;;;8.71;51.01;100276.91;5003840;28;20414;-70
2021/05/21 04:41:07;;;;;;;2.50;0.25;;;;;;;8.63;51.04;100273.72;5003400;28;20040;-70
2021/05/21 04:43:33;;;;;;;5.72;0.60;;;;;;;9.21;49.75;100281.75;5004380;28;20494;-71
2021/05/21 04:46:00;;;;;;;4.90;0.75;;;;;;;8.97;49.56;100275.81;5003594;28;20587;-71
2021/05/21 04:48:26;;;;;;;6.45;0.75;;;;;;;8.72;50.10;100263.81;5004340;28;20554;-70
2021/05/21 04:50:52;;;;;;;3.90;0.50;;;;;;;8.56;50.99;100260.97;5003932;28;20046;-69
2021/05/21 04:53:17;;;;;;;6.05;0.50;;;;;;;8.72;50.33;100260.38;5003848;28;20309;-67
2021/05/21 04:55:43;;;;;;;8.00;0.70;;;;;;;8.94;50.02;100242.91;5002764;28;20038;-66
2021/05/21 04:58:09;;;;;;;6.15;0.80;;;;;;;9.11;49.79;100244.78;5004173;28;20038;-66
2021/05/21 05:00:36;;;;;;;6.95;0.73;;;;;;;9.06;49.42;100245.91;5001500;28;20073;-66
2021/05/21 05:03:09;;;;;;;6.20;0.50;;;;;;;9.26;48.92;100248.47;4992637;28;20113;-66
2021/05/21 05:05:35;;;;;;;7.97;0.77;;;;;;;9.00;49.58;100251.38;5003477;28;20042;-66
2021/05/21 05:08:01;;;;;;;11.18;0.75;;;;;;;8.51;50.52;100249.88;5003028;28;20030;-66
2021/05/21 05:10:26;;;;;;;8.55;0.95;;;;;;;8.77;50.13;100248.84;5003789;28;20080;-71
2021/05/21 05:12:52;;;;;;;5.13;0.75;;;;;;;9.31;49.00;100237.84;5003900;28;20033;-71
2021/05/21 05:15:19;;;;;;;6.90;0.60;;;;;;;9.42;48.47;100237.34;5003924;28;20121;-67
2021/05/21 05:17:48;;;;;;;9.43;0.77;;;;;;;9.62;48.00;100234.69;5005311;28;20048;-66
2021/05/21 05:20:14;;;;;;;4.55;0.65;;;;;;;9.70;48.39;100236.91;5003449;28;20073;-70
2021/05/21 05:22:40;;;;;;;8.30;0.82;;;;;;;9.78;48.15;100230.44;5002908;28;20153;-70
2021/05/21 05:25:06;;;;;;;7.97;0.88;;;;;;;9.77;48.20;100231.38;5004921;28;20152;-71
2021/05/21 05:27:31;;;;;;;7.18;0.50;;;;;;;9.23;49.15;100240.81;5003181;28;20564;-68
2021/05/21 05:29:58;;;;;;;2.13;0.43;;;;;;;9.58;48.73;100240.94;5004549;28;20130;-68
2021/05/21 05:32:24;;;;;;;7.25;0.60;;;;;;;9.65;48.64;100241.50;5001989;28;20330;-69
2021/05/21 05:34:49;;;;;;;6.63;0.40;;;;;;;9.75;48.14;100230.59;5001964;28;20037;-72
2021/05/21 05:37:15;;;;;;;6.82;1.05;;;;;;;9.77;47.83;100228.75;5003900;28;20112;-70
2021/05/21 05:39:41;;;;;;;3.72;0.50;;;;;;;9.95;47.43;100224.47;5002271;28;20093;-70
2021/05/21 05:42:06;;;;;;;8.02;0.50;;;;;;;9.79;47.61;100221.72;5003689;28;20041;-72
2021/05/21 05:44:31;;;;;;;10.25;0.50;;;;;;;9.72;48.19;100212.47;5002255;28;20030;-69
2021/05/21 05:46:57;;;;;;;7.25;1.13;;;;;;;9.64;48.38;100208.53;5007693;28;20076;-70
2021/05/21 05:49:22;;;;;;;4.72;1.00;;;;;;;9.60;48.67;100199.97;5007172;28;20672;-70
2021/05/21 05:51:48;;;;;;;5.30;1.55;;;;;;;9.70;48.61;100201.25;5006957;28;20061;-70
2021/05/21 05:54:13;;;;;;;9.57;0.50;;;;;;;9.76;48.87;100194.88;5005894;28;20074;-69
2021/05/21 05:56:39;;;;;;;6.45;0.50;;;;;;;9.89;49.00;100203.84;5005862;28;20497;-67
2021/05/21 05:59:04;;;;;;;4.70;0.60;;;;;;;9.85;48.83;100194.47;5004949;28;20041;-66
2021/05/21 06:01:30;;;;;;;2.67;0.60;;;;;;;9.85;48.68;100194.47;5004940;28;20065;-68
2021/05/21 06:03:55;;;;;;;5.00;0.40;;;;;;;9.89;48.59;100201.25;5006416;28;20406;-67
2021/05/21 06:06:21;;;;;;;13.20;1.15;;;;;;;10.18;47.93;100191.16;5006009;28;20030;-67
2021/05/21 06:08:46;;;;;;;5.38;0.73;;;;;;;9.69;48.83;100196.09;5003781;28;20074;-66
2021/05/21 06:11:12;;;;;;;6.75;0.75;;;;;;;10.15;47.43;100197.38;5004179;28;20029;-66
2021/05/21 06:13:37;;;;;;;6.78;0.68;;;;;;;10.10;47.26;100186.31;5004694;28;20780;-66
2021/05/21 06:16:03;;;;;;;7.68;1.05;;;;;;;10.24;46.95;100182.19;5003658;28;20037;-66
2021/05/21 06:18:29;;;;;;;4.82;0.60;;;;;;;10.44;47.28;100176.81;5005417;28;20513;-66
2021/05/21 06:20:55;;;;;;;15.05;6.90;;;;;;;10.94;46.26;100176.00;5005368;28;20080;-67
2021/05/21 06:23:20;;;;;;;9.10;0.88;;;;;;;11.08;44.89;100171.78;5003092;28;20045;-67
2021/05/21 06:28:15;;;;;;;6.00;1.42;;;;;;;11.87;42.57;100175.31;5005530;28;20494;-66
2021/05/21 06:30:41;;;;;;;3.67;0.40;;;;;;;16.08;34.65;100154.09;5004427;28;20482;-67
2021/05/21 06:33:06;;;;;;;4.10;1.05;;;;;;;17.40;31.03;100154.44;5004925;28;20100;-67
2021/05/21 06:35:35;;;;;;;8.13;0.93;;;;;;;18.79;29.40;100149.16;5004120;28;20056;-65
2021/05/21 06:38:01;;;;;;;5.90;0.60;;;;;;;19.01;28.13;100140.19;5004370;28;20061;-66
2021/05/21 06:40:26;;;;;;;6.50;1.45;;;;;;;17.80;30.11;100156.53;5005470;28;20037;-65
2021/05/21 06:42:52;;;;;;;6.30;0.60;;;;;;;15.01;34.41;100141.59;5005509;28;20398;-65
2021/05/21 06:45:18;;;;;;;9.13;0.82;;;;;;;14.45;37.01;100142.75;5004494;28;20353;-67
2021/05/21 06:47:44;;;;;;;10.65;1.00;;;;;;;15.65;34.59;100130.91;5004306;28;20049;-65
2021/05/21 06:50:10;;;;;;;9.85;0.93;;;;;;;17.47;32.06;100133.66;5006959;28;20041;-67
2021/05/21 06:52:36;;;;;;;11.70;1.00;;;;;;;17.97;31.09;100132.19;5003574;28;20113;-67
2021/05/21 06:55:03;;;;;;;5.68;0.40;;;;;;;17.99;30.72;100134.72;5005795;28;20541;-66
2021/05/21 06:57:29;;;;;;;6.13;0.45;;;;;;;16.54;33.04;100140.91;5004406;28;20492;-68
2021/05/21 06:59:54;;;;;;;6.45;0.65;;;;;;;14.35;37.90;100132.00;5001938;28;20034;-65
2021/05/21 07:02:20;;;;;;;8.73;1.38;;;;;;;15.09;35.89;100124.31;5003236;28;20033;-64
2021/05/21 07:04:45;;;;;;;6.90;1.00;;;;;;;16.09;34.06;100124.16;5003384;28;20065;-67
2021/05/21 07:07:11;;;;;;;8.00;0.82;;;;;;;15.67;35.11;100121.09;5002798;28;20033;-64
2021/05/21 07:09:36;;;;;;;10.68;1.02;;;;;;;15.04;36.02;100118.53;5003875;28;20072;-65
2021/05/21 07:12:02;;;;;;;3.13;0.50;;;;;;;16.04;34.29;100121.00;5002240;28;20280;-67
2021/05/21 07:14:27;;;;;;;4.93;0.75;;;;;;;17.46;32.39;100122.25;5004360;28;20041;-67
2021/05/21 07:16:53;;;;;;;9.65;1.17;;;;;;;16.16;33.50;100117.47;5002751;28;20041;-65
2021/05/21 07:19:18;;;;;;;7.43;0.90;;;;;;;15.65;34.43;100102.75;5004917;28;20045;-66
2021/05/21 07:21:46;;;;;;;11.80;1.27;;;;;;;16.49;33.85;100105.28;5002305;28;20084;-66
2021/05/21 07:24:12;;;;;;;3.42;1.13;;;;;;;18.94;29.67;100107.28;5004278;28;20097;-66
2021/05/21 07:26:37;;;;;;;10.27;1.58;;;;;;;16.66;33.11;100107.44;5002099;28;20428;-66
2021/05/21 07:29:03;;;;;;;5.22;0.77;;;;;;;17.82;31.66;100112.31;5004779;28;20494;-66
2021/05/21 07:31:30;;;;;;;8.32;0.90;;;;;;;18.88;29.76;100090.13;5004205;28;20286;-66
2021/05/21 07:33:57;;;;;;;6.18;0.98;;;;;;;20.36;27.26;100093.56;5018579;28;20038;-66
2021/05/21 07:36:23;;;;;;;12.25;1.15;;;;;;;19.36;28.12;100096.50;5003452;28;20053;-67
2021/05/21 07:38:50;;;;;;;10.45;1.33;;;;;;;17.86;30.74;100090.78;5003490;28;20096;-66
2021/05/21 07:41:18;;;;;;;8.57;1.08;;;;;;;17.14;31.78;100082.63;5002902;28;20042;-66
2021/05/21 07:43:44;;;;;;;8.80;0.50;;;;;;;15.63;32.95;100091.50;5002955;28;20034;-66
2021/05/21 07:46:09;;;;;;;6.93;1.17;;;;;;;15.29;34.04;100093.13;5018836;28;20156;-66
2021/05/21 07:48:35;;;;;;;5.72;0.57;;;;;;;15.88;32.96;100087.84;5002873;28;20112;-67
2021/05/21 07:51:02;;;;;;;8.98;1.02;;;;;;;16.02;32.96;100086.88;4987107;28;20064;-67
2021/05/21 07:53:31;;;;;;;5.80;0.85;;;;;;;14.89;35.82;100098.56;5017780;28;20263;-66
2021/05/21 07:55:58;;;;;;;15.32;1.73;;;;;;;13.59;38.09;100087.22;5002908;28;20052;-68
2021/05/21 07:58:23;;;;;;;10.02;0.93;;;;;;;12.80;40.07;100083.41;5004102;28;20064;-66
2021/05/21 08:00:49;;;;;;;7.78;1.00;;;;;;;12.45;40.57;100091.63;4995366;28;20484;-66
2021/05/21 08:03:15;;;;;;;9.55;1.73;;;;;;;12.55;39.80;100087.50;5002412;28;20038;-66
2021/05/21 08:05:40;;;;;;;8.55;0.80;;;;;;;13.51;38.73;100087.66;5004734;28;20034;-65
2021/05/21 08:08:06;;;;;;;15.75;1.17;;;;;;;13.21;39.21;100078.19;5001651;28;20042;-67
2021/05/21 08:10:32;;;;;;;14.13;1.25;;;;;;;12.52;40.36;100090.31;5001641;28;20067;-65
2021/05/21 08:13:02;;;;;;;7.32;0.82;;;;;;;13.51;38.14;100080.63;5003873;28;20030;-69
2021/05/21 08:15:27;;;;;;;8.88;0.98;;;;;;;12.60;38.90;100084.59;5002529;28;20092;-66
2021/05/21 08:17:52;;;;;;;7.25;1.20;;;;;;;13.99;37.00;100084.56;5003995;28;20162;-65
2021/05/21 08:20:18;;;;;;;8.23;1.10;;;;;;;13.47;37.26;100073.91;5003224;28;20036;-66
2021/05/21 08:22:43;;;;;;;7.85;0.70;;;;;;;13.04;38.22;100079.25;5001245;28;20045;-65
2021/05/21 08:25:10;;;;;;;11.88;1.45;;;;;;;12.79;37.78;100077.31;5003568;28;20081;-66
2021/05/21 08:27:35;;;;;;;12.07;1.08;;;;;;;12.92;38.39;100087.91;5002660;28;20044;-66
2021/05/21 08:30:02;;;;;;;7.22;1.23;;;;;;;12.80;38.63;100070.28;5002848;28;20030;-66
2021/05/21 08:32:27;;;;;;;7.35;1.25;;;;;;;13.51;37.70;100067.50;5000830;28;20042;-65
2021/05/21 08:34:53;;;;;;;15.50;1.75;;;;;;;14.02;36.92;100063.34;5004183;28;20037;-69
2021/05/21 08:37:18;;;;;;;8.80;1.63;;;;;;;14.03;36.80;100065.88;5001387;28;20921;-64
2021/05/21 08:39:44;;;;;;;5.85;1.05;;;;;;;13.19;38.56;100079.25;5002113;28;20526;-67
2021/05/21 08:42:11;;;;;;;12.95;1.27;;;;;;;11.30;44.17;100067.69;5003077;28;20421;-66
2021/05/21 08:44:38;;;;;;;6.80;1.15;;;;;;;11.43;44.31;100068.69;5002429;28;20125;-66
2021/05/21 08:47:05;;;;;;;6.45;1.25;;;;;;;12.16;43.19;100064.56;5002379;28;20056;-66
2021/05/21 08:49:31;;;;;;;5.93;0.80;;;;;;;13.46;41.26;100063.50;5002686;28;20037;-66
2021/05/21 08:51:57;;;;;;;6.32;0.75;;;;;;;13.22;40.19;100063.28;5003713;28;20402;-66
2021/05/21 08:54:23;;;;;;;8.50;1.17;;;;;;;14.56;38.71;100047.38;5003388;28;20049;-67
2021/05/21 08:56:48;;;;;;;10.77;1.33;;;;;;;15.71;35.72;100040.88;5003430;28;20495;-64
2021/05/21 08:59:14;;;;;;;6.63;0.98;;;;;;;16.08;35.33;100030.22;5002354;28;20148;-68
2021/05/21 09:01:57;;;;;;;12.85;1.25;;;;;;;18.82;29.56;100043.81;5003595;28;20467;-67
2021/05/21 09:04:24;;;;;;;5.65;0.68;;;;;;;16.59;31.41;100042.94;5002274;28;20065;-65
2021/05/21 09:06:49;;;;;;;7.72;0.73;;;;;;;16.58;31.73;100034.19;5002025;28;20029;-66
2021/05/21 09:09:15;;;;;;;6.68;0.35;;;;;;;16.20;31.12;100031.91;5005319;28;20037;-65
2021/05/21 09:11:46;;;;;;;9.82;1.02;;;;;;;14.25;34.56;100033.69;4999260;28;20049;-66
2021/05/21 09:14:23;;;;;;;7.85;1.00;;;;;;;14.85;34.76;100029.53;5001576;28;20034;-67
2021/05/21 09:16:49;;;;;;;13.48;1.52;;;;;;;12.82;37.01;100029.94;5002024;28;20475;-67
2021/05/21 09:19:17;;;;;;;8.85;0.70;;;;;;;13.04;37.60;100024.16;5003464;28;20034;-66
2021/05/21 09:21:49;;;;;;;7.10;0.60;;;;;;;13.71;36.17;100018.09;5005892;28;20030;-66
2021/05/21 09:24:19;;;;;;;6.63;1.55;;;;;;;12.88;38.52;100023.47;5007330;28;20037;-66
2021/05/21 09:26:46;;;;;;;8.32;1.25;;;;;;;12.66;38.51;100032.63;4996219;28;20040;-66
2021/05/21 09:29:14;;;;;;;6.60;0.85;;;;;;;12.01;41.17;100022.63;5006076;28;20270;-67
2021/05/21 09:31:49;;;;;;;12.50;0.95;;;;;;;11.76;42.28;100038.91;5005384;28;20126;-66
2021/05/21 09:34:33;;;;;;;10.82;0.90;;;;;;;11.62;42.74;100059.78;5009524;28;20068;-65
2021/05/21 09:36:59;;;;;;;1.63;0.32;;;;;;;10.65;43.08;100052.03;5006678;28;20034;-66
2021/05/21 09:39:26;;;;;;;7.68;0.50;;;;;;;10.95;43.10;100052.19;5007166;28;20041;-66
2021/05/21 09:41:57;;;;;;;4.65;0.40;;;;;;;11.26;42.83;100055.69;5005416;28;20034;-65
2021/05/21 09:44:25;;;;;;;2.88;0.57;;;;;;;13.26;39.20;100049.88;5006708;28;20033;-67
2021/05/21 09:46:52;;;;;;;4.80;1.08;;;;;;;13.81;38.58;100050.69;5005973;28;20478;-68
2021/05/21 09:49:34;;;;;;;4.30;0.57;;;;;;;15.74;36.14;100035.38;5006734;28;20069;-66
2021/05/21 09:52:02;;;;;;;5.65;1.48;;;;;;;13.86;37.19;100043.34;5005144;28;20422;-66
2021/05/21 09:54:47;;;;;;;4.70;0.68;;;;;;;14.20;36.97;100038.44;5006057;28;20304;-66
2021/05/21 09:57:12;;;;;;;7.45;1.50;;;;;;;13.77;36.99;100030.00;5003809;28;20615;-67
2021/05/21 09:59:38;;;;;;;10.68;1.20;;;;;;;14.38;36.47;100038.13;5004941;28;20121;-65
2021/05/21 10:02:21;;;;;;;4.57;0.55;;;;;;;14.67;35.78;100034.31;5005362;28;20510;-67
2021/05/21 10:04:47;;;;;;;10.52;0.88;;;;;;;15.55;35.43;100015.69;4996076;28;20049;-66
2021/05/21 10:07:13;;;;;;;5.97;0.85;;;;;;;17.83;32.91;100009.09;5005381;28;20416;-66
2021/05/21 10:09:40;;;;;;;8.95;1.00;;;;;;;17.28;31.14;100016.31;5006066;28;20387;-67
2021/05/21 10:12:07;;;;;;;12.95;1.10;;;;;;;16.48;30.15;100004.22;5005051;28;20042;-67
2021/05/21 10:14:33;;;;;;;11.15;0.82;;;;;;;14.50;33.61;100005.72;5005910;28;20132;-67
2021/05/21 10:17:00;;;;;;;5.10;0.47;;;;;;;13.74;34.47;100023.16;5004705;28;20128;-67
2021/05/21 10:19:26;;;;;;;5.70;0.63;;;;;;;13.15;35.30;100020.03;5006184;28;20045;-67
2021/05/21 10:21:53;;;;;;;4.97;0.57;;;;;;;14.93;33.30;100013.22;5005968;28;20038;-67
2021/05/21 10:24:20;;;;;;;5.63;0.52;;;;;;;14.85;32.63;100015.53;5005578;28;20045;-66
2021/05/21 10:26:52;;;;;;;10.23;0.60;;;;;;;13.25;35.79;100015.84;5005094;28;20068;-67
2021/05/21 10:29:22;;;;;;;3.28;0.68;;;;;;;14.35;33.98;100026.88;5005956;28;20648;-66
2021/05/21 10:31:51;;;;;;;3.38;0.70;;;;;;;13.98;33.98;100019.81;5005569;28;20057;-67
2021/05/21 10:34:18;;;;;;;6.85;0.77;;;;;;;14.04;33.14;100022.88;5004765;28;20030;-66
2021/05/21 10:37:24;;;;;;;5.80;0.80;;;;;;;14.27;33.14;100016.03;5003293;28;20062;-66
2021/05/21 10:40:10;;;;;;;6.03;0.65;;;;;;;13.44;34.67;100016.34;5006624;28;20057;-67
2021/05/21 10:42:54;;;;;;;13.07;1.25;;;;;;;13.27;33.53;100027.09;5005437;28;20112;-68
2021/05/21 10:45:32;;;;;;;4.38;1.00;;;;;;;13.81;34.72;100024.44;5003134;28;20301;-67
2021/05/21 10:47:57;;;;;;;9.98;0.68;;;;;;;12.98;34.46;100032.44;5005467;28;20053;-65
2021/05/21 10:50:31;;;;;;;6.00;0.60;;;;;;;13.77;33.48;100006.38;5003728;28;20018;-68
2021/05/21 10:52:59;;;;;;;6.18;0.82;;;;;;;14.21;33.16;100020.88;5005484;28;20542;-67
2021/05/21 10:55:41;;;;;;;5.60;0.60;;;;;;;14.54;32.11;100022.97;5004641;28;20064;-67
2021/05/21 10:58:07;;;;;;;;;;;;;;;13.70;33.35;100024.31;4996899;28;20037;-67
2021/05/21 11:00:34;;;;;;;8.25;0.70;;;;;;;13.92;32.36;100027.19;5002931;28;20584;-67
2021/05/21 11:03:00;;;;;;;9.75;0.88;;;;;;;14.25;33.15;100025.81;5002750;28;20252;-67
2021/05/21 11:05:30;;;;;;;3.88;0.50;;;;;;;13.89;32.75;100027.38;5004221;28;20030;-67
2021/05/21 11:07:58;;;;;;;6.50;0.52;;;;;;;13.25;33.59;100023.72;5004508;28;20030;-67
2021/05/21 11:10:34;;;;;;;6.78;0.60;;;;;;;13.19;33.85;100024.97;5004387;28;20457;-67
2021/05/21 11:13:04;;;;;;;7.22;0.63;;;;;;;13.09;33.77;100009.00;5002912;28;20042;-66
2021/05/21 11:15:33;;;;;;;7.07;1.10;;;;;;;14.04;32.83;100019.41;5002578;28;20506;-67
2021/05/21 11:18:16;;;;;;;5.85;0.40;;;;;;;14.47;32.15;100009.41;5004959;28;20706;-67
2021/05/21 11:20:57;;;;;;;7.65;0.40;;;;;;;15.49;30.18;100010.88;5002517;28;20037;-68
2021/05/21 11:23:29;;;;;;;5.30;1.00;;;;;;;16.23;29.90;100005.31;4994121;28;20243;-68
2021/05/21 11:26:03;;;;;;;;;;;;;;;14.73;31.35;100014.63;5004062;28;20538;-68
2021/05/21 11:28:30;;;;;;;5.28;0.40;;;;;;;14.49;31.32;100019.84;5004398;28;20428;-68